UAL1151 KFLL-KSFO
Flight info
| Callsign | UAL1151 |
|---|---|
| Flight time | N/A |
| Altitude | 30000 |
| Route | HROCK2 SMELZ Q116 JAWJA MGMRY JILLS Q128 ECIGE/N0461F320 Q128 FLOOD HBU ELLMU MLF KITTN Q164 KATTS Q136 RUMPS OAL INYOE DYAMD5 |
| Aircraft | B38M/M-SDE1FGHILORVWXY/HB1 |
Departure
| Time | N/A |
|---|---|
| Airport | Fort Lauderdale Hollywood International Airport (KFLL) |
Arrival
| Time | 2026-05-05 19:39 |
|---|---|
| Airport | San Francisco International Airport (KSFO) |
| Time | Latitude | Longitude | Altitude | Speed | Heading |
|---|---|---|---|---|---|
| 2026-05-05 18:51 | 38.33357 | -115.66870 | 37836 ft | 475 kts | 272° |
| 2026-05-05 18:51 | 38.33366 | -115.71067 | 37839 ft | 476 kts | 272° |
| 2026-05-05 18:52 | 38.33380 | -115.79511 | 37839 ft | 477 kts | 272° |
| 2026-05-05 18:52 | 38.33389 | -115.87912 | 37840 ft | 477 kts | 272° |
| 2026-05-05 18:53 | 38.33391 | -115.96301 | 37840 ft | 477 kts | 272° |
| 2026-05-05 18:53 | 38.33388 | -116.04734 | 37846 ft | 478 kts | 272° |
| 2026-05-05 18:54 | 38.33378 | -116.13236 | 37852 ft | 480 kts | 272° |
| 2026-05-05 18:54 | 38.33363 | -116.21760 | 37851 ft | 480 kts | 272° |
| 2026-05-05 18:55 | 38.33343 | -116.30268 | 37857 ft | 481 kts | 272° |
| 2026-05-05 18:55 | 38.33003 | -116.34444 | 37830 ft | 484 kts | 257° |
| 2026-05-05 18:55 | 38.32079 | -116.38572 | 37885 ft | 485 kts | 257° |
| 2026-05-05 18:56 | 38.30289 | -116.46868 | 37876 ft | 486 kts | 256° |
| 2026-05-05 18:56 | 38.28431 | -116.55159 | 37865 ft | 487 kts | 256° |
| 2026-05-05 18:57 | 38.26561 | -116.63436 | 37872 ft | 489 kts | 256° |
| 2026-05-05 18:57 | 38.24674 | -116.71752 | 37878 ft | 489 kts | 256° |
| 2026-05-05 18:58 | 38.22781 | -116.80062 | 37914 ft | 489 kts | 256° |
| 2026-05-05 18:58 | 38.20884 | -116.88366 | 37941 ft | 489 kts | 256° |
| 2026-05-05 18:59 | 38.18977 | -116.96681 | 37971 ft | 491 kts | 256° |
| 2026-05-05 18:59 | 38.17061 | -117.05000 | 37994 ft | 491 kts | 256° |
| 2026-05-05 19:00 | 38.15152 | -117.13265 | 37998 ft | 491 kts | 256° |
| 2026-05-05 19:00 | 38.13218 | -117.21610 | 37892 ft | 492 kts | 256° |
| 2026-05-05 19:01 | 38.11291 | -117.29946 | 37905 ft | 492 kts | 256° |
| 2026-05-05 19:01 | 38.09379 | -117.38227 | 37911 ft | 492 kts | 256° |
| 2026-05-05 19:02 | 38.07451 | -117.46550 | 37914 ft | 492 kts | 256° |
| 2026-05-05 19:02 | 38.05515 | -117.54873 | 37920 ft | 493 kts | 256° |
| 2026-05-05 19:03 | 38.03567 | -117.63222 | 37915 ft | 493 kts | 256° |
| 2026-05-05 19:03 | 38.01942 | -117.70161 | 37918 ft | 493 kts | 256° |
| 2026-05-05 19:04 | 38.00168 | -117.78548 | 37907 ft | 489 kts | 265° |
| 2026-05-05 19:04 | 37.99281 | -117.87110 | 37911 ft | 490 kts | 265° |
| 2026-05-05 19:05 | 37.98375 | -117.95684 | 37925 ft | 490 kts | 265° |
| 2026-05-05 19:05 | 37.97468 | -118.04247 | 37925 ft | 490 kts | 265° |
| 2026-05-05 19:06 | 37.96555 | -118.12816 | 37925 ft | 491 kts | 265° |
| 2026-05-05 19:06 | 37.95640 | -118.21341 | 37944 ft | 492 kts | 265° |
| 2026-05-05 19:07 | 37.94708 | -118.29950 | 37926 ft | 492 kts | 265° |
| 2026-05-05 19:07 | 37.93773 | -118.38539 | 37938 ft | 492 kts | 265° |
| 2026-05-05 19:08 | 37.92836 | -118.47094 | 37938 ft | 493 kts | 265° |
| 2026-05-05 19:08 | 37.91888 | -118.55678 | 37935 ft | 494 kts | 265° |
| 2026-05-05 19:09 | 37.90927 | -118.64322 | 37977 ft | 496 kts | 265° |
| 2026-05-05 19:09 | 37.89961 | -118.72967 | 37994 ft | 496 kts | 265° |
| 2026-05-05 19:10 | 37.88985 | -118.81618 | 38009 ft | 497 kts | 265° |
| 2026-05-05 19:10 | 37.88002 | -118.90282 | 38022 ft | 497 kts | 265° |
| 2026-05-05 19:11 | 37.87014 | -118.98937 | 38010 ft | 497 kts | 265° |
| 2026-05-05 19:11 | 37.86024 | -119.07549 | 37993 ft | 497 kts | 265° |
| 2026-05-05 19:12 | 37.85025 | -119.16183 | 38006 ft | 497 kts | 265° |
| 2026-05-05 19:12 | 37.84016 | -119.24845 | 37975 ft | 497 kts | 265° |
| 2026-05-05 19:13 | 37.83003 | -119.33481 | 37987 ft | 495 kts | 265° |
| 2026-05-05 19:13 | 37.81989 | -119.42072 | 38017 ft | 495 kts | 265° |
| 2026-05-05 19:14 | 37.80968 | -119.50678 | 38014 ft | 495 kts | 265° |
| 2026-05-05 19:14 | 37.79944 | -119.59244 | 37997 ft | 495 kts | 265° |
| 2026-05-05 19:15 | 37.79427 | -119.63543 | 37841 ft | 494 kts | 265° |
| 2026-05-05 19:15 | 37.78911 | -119.67826 | 37545 ft | 493 kts | 265° |
| 2026-05-05 19:15 | 37.78394 | -119.72116 | 37264 ft | 493 kts | 265° |
| 2026-05-05 19:15 | 37.77875 | -119.76392 | 36963 ft | 495 kts | 265° |
| 2026-05-05 19:16 | 37.77351 | -119.80705 | 36688 ft | 497 kts | 265° |
| 2026-05-05 19:16 | 37.76824 | -119.85023 | 36421 ft | 499 kts | 265° |
| 2026-05-05 19:16 | 37.76292 | -119.89371 | 36097 ft | 502 kts | 265° |
| 2026-05-05 19:16 | 37.75755 | -119.93740 | 35816 ft | 504 kts | 265° |
| 2026-05-05 19:17 | 37.75216 | -119.98124 | 35545 ft | 506 kts | 266° |
| 2026-05-05 19:17 | 37.74672 | -120.02525 | 35282 ft | 507 kts | 266° |
| 2026-05-05 19:17 | 37.74126 | -120.06922 | 35006 ft | 509 kts | 266° |
| 2026-05-05 19:17 | 37.73577 | -120.11346 | 34739 ft | 511 kts | 266° |
| 2026-05-05 19:18 | 37.73023 | -120.15784 | 34469 ft | 513 kts | 265° |
| 2026-05-05 19:18 | 37.72463 | -120.20265 | 34195 ft | 515 kts | 266° |
| 2026-05-05 19:18 | 37.71910 | -120.24676 | 33900 ft | 515 kts | 266° |
| 2026-05-05 19:18 | 37.71348 | -120.29140 | 33053 ft | 516 kts | 265° |
| 2026-05-05 19:19 | 37.70779 | -120.33657 | 31912 ft | 525 kts | 265° |
| 2026-05-05 19:19 | 37.70202 | -120.38224 | 31025 ft | 528 kts | 265° |
| 2026-05-05 19:19 | 37.69663 | -120.42794 | 30449 ft | 523 kts | 266° |
| 2026-05-05 19:19 | 37.69139 | -120.47310 | 29976 ft | 516 kts | 266° |
| 2026-05-05 19:20 | 37.68616 | -120.51784 | 29266 ft | 513 kts | 266° |
| 2026-05-05 19:20 | 37.68092 | -120.56236 | 28542 ft | 511 kts | 266° |
| 2026-05-05 19:20 | 37.67571 | -120.60651 | 27906 ft | 506 kts | 266° |
| 2026-05-05 19:20 | 37.67052 | -120.65033 | 27249 ft | 502 kts | 265° |
| 2026-05-05 19:21 | 37.66541 | -120.69326 | 26602 ft | 490 kts | 265° |
| 2026-05-05 19:21 | 37.66042 | -120.73515 | 26000 ft | 475 kts | 265° |
| 2026-05-05 19:21 | 37.65560 | -120.77551 | 25352 ft | 465 kts | 265° |
| 2026-05-05 19:21 | 37.65077 | -120.81575 | 24786 ft | 452 kts | 265° |
| 2026-05-05 19:22 | 37.64616 | -120.85403 | 24219 ft | 441 kts | 265° |
| 2026-05-05 19:22 | 37.64157 | -120.89208 | 23640 ft | 440 kts | 265° |
| 2026-05-05 19:22 | 37.63694 | -120.93039 | 22926 ft | 441 kts | 265° |
| 2026-05-05 19:22 | 37.63211 | -120.96854 | 22275 ft | 435 kts | 264° |
| 2026-05-05 19:23 | 37.62717 | -121.00550 | 21703 ft | 423 kts | 264° |
| 2026-05-05 19:23 | 37.62239 | -121.04145 | 21233 ft | 412 kts | 265° |
| 2026-05-05 19:23 | 37.61764 | -121.07713 | 20682 ft | 412 kts | 265° |
| 2026-05-05 19:23 | 37.61290 | -121.11277 | 20100 ft | 413 kts | 264° |
| 2026-05-05 19:24 | 37.60813 | -121.14848 | 19540 ft | 413 kts | 264° |
| 2026-05-05 19:24 | 37.60334 | -121.18421 | 18988 ft | 413 kts | 264° |
| 2026-05-05 19:24 | 37.59855 | -121.21997 | 18424 ft | 413 kts | 264° |
| 2026-05-05 19:24 | 37.59376 | -121.25574 | 17794 ft | 413 kts | 265° |
| 2026-05-05 19:25 | 37.58966 | -121.29135 | 17150 ft | 407 kts | 266° |
| 2026-05-05 19:25 | 37.58571 | -121.32600 | 16652 ft | 393 kts | 266° |
| 2026-05-05 19:25 | 37.58185 | -121.35953 | 16160 ft | 380 kts | 266° |
| 2026-05-05 19:25 | 37.57813 | -121.39162 | 15665 ft | 370 kts | 266° |
| 2026-05-05 19:26 | 37.57440 | -121.42369 | 15166 ft | 363 kts | 266° |
| 2026-05-05 19:26 | 37.57075 | -121.45500 | 14674 ft | 365 kts | 266° |
| 2026-05-05 19:26 | 37.56703 | -121.48674 | 14192 ft | 366 kts | 265° |
| 2026-05-05 19:26 | 37.56337 | -121.51802 | 13664 ft | 357 kts | 265° |
| 2026-05-05 19:27 | 37.55978 | -121.54860 | 13126 ft | 347 kts | 266° |
| 2026-05-05 19:27 | 37.55628 | -121.57830 | 12668 ft | 337 kts | 266° |
| 2026-05-05 19:27 | 37.55290 | -121.60701 | 12233 ft | 328 kts | 266° |
| 2026-05-05 19:27 | 37.54858 | -121.63495 | 11713 ft | 324 kts | 258° |
| 2026-05-05 19:28 | 37.54178 | -121.66184 | 11141 ft | 319 kts | 257° |
| 2026-05-05 19:28 | 37.53529 | -121.68843 | 10677 ft | 315 kts | 258° |
| 2026-05-05 19:28 | 37.52900 | -121.71476 | 10156 ft | 313 kts | 258° |
| 2026-05-05 19:28 | 37.52290 | -121.74060 | 9574 ft | 311 kts | 258° |
| 2026-05-05 19:29 | 37.51680 | -121.76666 | 9049 ft | 308 kts | 258° |
| 2026-05-05 19:29 | 37.51077 | -121.79243 | 8501 ft | 303 kts | 257° |
| 2026-05-05 19:29 | 37.50475 | -121.81752 | 8053 ft | 295 kts | 257° |
| 2026-05-05 19:29 | 37.49888 | -121.84191 | 7663 ft | 287 kts | 256° |
| 2026-05-05 19:30 | 37.49315 | -121.86572 | 7278 ft | 280 kts | 256° |
| 2026-05-05 19:30 | 37.48724 | -121.88875 | 6985 ft | 272 kts | 254° |
| 2026-05-05 19:30 | 37.48133 | -121.91100 | 6716 ft | 263 kts | 254° |
| 2026-05-05 19:30 | 37.47560 | -121.93268 | 6493 ft | 259 kts | 254° |
| 2026-05-05 19:31 | 37.46994 | -121.95411 | 6259 ft | 256 kts | 254° |
| 2026-05-05 19:31 | 37.46437 | -121.97529 | 6043 ft | 253 kts | 256° |
| 2026-05-05 19:31 | 37.46285 | -121.99672 | 5758 ft | 244 kts | 283° |
| 2026-05-05 19:31 | 37.46878 | -122.01633 | 5500 ft | 238 kts | 298° |
| 2026-05-05 19:32 | 37.47600 | -122.03445 | 5314 ft | 232 kts | 298° |
| 2026-05-05 19:32 | 37.48335 | -122.05237 | 5070 ft | 228 kts | 299° |
| 2026-05-05 19:32 | 37.49057 | -122.06969 | 4825 ft | 219 kts | 300° |
| 2026-05-05 19:32 | 37.49754 | -122.08636 | 4549 ft | 212 kts | 300° |
| 2026-05-05 19:33 | 37.50434 | -122.10257 | 4285 ft | 207 kts | 300° |
| 2026-05-05 19:33 | 37.51096 | -122.11837 | 4030 ft | 201 kts | 299° |
| 2026-05-05 19:33 | 37.51739 | -122.13365 | 3790 ft | 194 kts | 299° |
| 2026-05-05 19:33 | 37.52361 | -122.14847 | 3550 ft | 188 kts | 299° |
| 2026-05-05 19:34 | 37.52964 | -122.16281 | 3322 ft | 182 kts | 299° |
| 2026-05-05 19:34 | 37.53546 | -122.17668 | 3101 ft | 176 kts | 298° |
| 2026-05-05 19:34 | 37.54111 | -122.19011 | 2870 ft | 171 kts | 298° |
| 2026-05-05 19:35 | 37.55214 | -122.21638 | 2457 ft | 170 kts | 298° |
| 2026-05-05 19:35 | 37.55766 | -122.22953 | 2222 ft | 168 kts | 298° |
| 2026-05-05 19:35 | 37.56304 | -122.24236 | 2012 ft | 161 kts | 297° |
| 2026-05-05 19:35 | 37.56812 | -122.25447 | 1841 ft | 150 kts | 297° |
| 2026-05-05 19:36 | 37.57294 | -122.26594 | 1683 ft | 146 kts | 298° |
| 2026-05-05 19:36 | 37.57764 | -122.27716 | 1458 ft | 143 kts | 297° |
| 2026-05-05 19:36 | 37.58224 | -122.28815 | 1284 ft | 145 kts | 298° |
| 2026-05-05 19:36 | 37.58698 | -122.29941 | 1071 ft | 147 kts | 297° |
| 2026-05-05 19:37 | 37.59180 | -122.31077 | 850 ft | 147 kts | 297° |
| 2026-05-05 19:37 | 37.59658 | -122.32214 | 658 ft | 146 kts | 296° |
| 2026-05-05 19:37 | 37.60125 | -122.33335 | 461 ft | 142 kts | 297° |
| 2026-05-05 19:37 | 37.60578 | -122.34429 | 294 ft | 140 kts | 297° |
| 2026-05-05 19:38 | 37.61037 | -122.35512 | 121 ft | 139 kts | 297° |
| 2026-05-05 19:38 | 37.61474 | -122.36557 | 23 ft | 118 kts | 297° |
| 2026-05-05 19:38 | 37.61763 | -122.37247 | 25 ft | 78 kts | 298° |
| 2026-05-05 19:38 | 37.62000 | -122.37812 | 26 ft | 69 kts | 298° |
| 2026-05-05 19:39 | 37.62159 | -122.38192 | 23 ft | 23 kts | 298° |
| 2026-05-05 19:39 | 37.62154 | -122.38312 | 27 ft | 14 kts | 216° |
| 2026-05-05 19:39 | 37.62070 | -122.38344 | 24 ft | 13 kts | 195° |
| 2026-05-05 19:39 | 37.62009 | -122.38306 | 23 ft | 11 kts | 117° |
| 2026-05-05 19:40 | 37.61948 | -122.38262 | 24 ft | 12 kts | 191° |
| 2026-05-05 19:40 | 37.61878 | -122.38306 | 23 ft | 12 kts | 208° |
| 2026-05-05 19:40 | 37.61831 | -122.38346 | 23 ft | 5 kts | 251° |
| 2026-05-05 19:40 | 37.61842 | -122.38392 | 26 ft | 5 kts | 298° |
| 2026-05-05 19:41 | 37.61846 | -122.38400 | 26 ft | 0 kts | 298° |